sensor_id;sensor_type;location;lat;lon;timestamp;pressure;altitude;pressure_sealevel;temperature;humidity
80678;BME280;70042;52.494;5.502;2023-08-31T00:02:09;100897.91;;;21.33;64.30
80678;BME280;70042;52.494;5.502;2023-08-31T00:04:34;100895.25;;;21.33;64.32
80678;BME280;70042;52.494;5.502;2023-08-31T00:07:00;100886.41;;;21.32;64.32
80678;BME280;70042;52.494;5.502;2023-08-31T00:09:25;100880.28;;;21.30;64.37
80678;BME280;70042;52.494;5.502;2023-08-31T00:11:51;100874.97;;;21.30;64.36
80678;BME280;70042;52.494;5.502;2023-08-31T00:14:17;100896.25;;;21.30;64.48
80678;BME280;70042;52.494;5.502;2023-08-31T00:16:43;100906.88;;;21.30;64.55
80678;BME280;70042;52.494;5.502;2023-08-31T00:19:11;100901.56;;;21.30;64.42
80678;BME280;70042;52.494;5.502;2023-08-31T00:21:37;100898.91;;;21.30;64.39
80678;BME280;70042;52.494;5.502;2023-08-31T00:24:03;100884.75;;;21.30;64.31
80678;BME280;70042;52.494;5.502;2023-08-31T00:26:28;100892.75;;;21.28;64.51
80678;BME280;70042;52.494;5.502;2023-08-31T00:28:56;100891.03;;;21.27;64.47
80678;BME280;70042;52.494;5.502;2023-08-31T00:31:22;100890.19;;;21.26;64.41
80678;BME280;70042;52.494;5.502;2023-08-31T00:33:47;100894.63;;;21.26;64.58
80678;BME280;70042;52.494;5.502;2023-08-31T00:36:14;100885.72;;;21.27;64.40
80678;BME280;70042;52.494;5.502;2023-08-31T00:38:39;100884.00;;;21.26;64.35
80678;BME280;70042;52.494;5.502;2023-08-31T00:41:05;100875.16;;;21.25;64.49
80678;BME280;70042;52.494;5.502;2023-08-31T00:43:31;100876.13;;;21.23;64.35
80678;BME280;70042;52.494;5.502;2023-08-31T00:45:57;100869.94;;;21.22;64.41
80678;BME280;70042;52.494;5.502;2023-08-31T00:48:24;100870.81;;;21.23;64.37
80678;BME280;70042;52.494;5.502;2023-08-31T00:50:50;100870.81;;;21.23;64.43
80678;BME280;70042;52.494;5.502;2023-08-31T00:53:17;100861.09;;;21.22;64.44
80678;BME280;70042;52.494;5.502;2023-08-31T00:55:45;100855.78;;;21.22;64.45
80678;BME280;70042;52.494;5.502;2023-08-31T00:58:11;100856.66;;;21.22;64.55
80678;BME280;70042;52.494;5.502;2023-08-31T01:00:46;100842.50;;;21.22;64.43
80678;BME280;70042;52.494;5.502;2023-08-31T01:06:38;100850.56;;;21.20;64.46
80678;BME280;70042;52.494;5.502;2023-08-31T01:14:17;100859.41;;;21.21;64.34
80678;BME280;70042;52.494;5.502;2023-08-31T01:16:47;100852.34;;;21.20;64.56
80678;BME280;70042;52.494;5.502;2023-08-31T01:22:12;100839.97;;;21.19;64.55
80678;BME280;70042;52.494;5.502;2023-08-31T01:24:38;100837.31;;;21.19;64.29
80678;BME280;70042;52.494;5.502;2023-08-31T01:27:05;100840.88;;;21.18;64.51
80678;BME280;70042;52.494;5.502;2023-08-31T01:29:30;100836.53;;;21.17;64.41
80678;BME280;70042;52.494;5.502;2023-08-31T01:31:56;100833.00;;;21.16;64.49
80678;BME280;70042;52.494;5.502;2023-08-31T01:34:21;100836.53;;;21.17;64.35
80678;BME280;70042;52.494;5.502;2023-08-31T01:36:53;100829.47;;;21.16;64.43
80678;BME280;70042;52.494;5.502;2023-08-31T01:39:26;100820.69;;;21.14;64.55
80678;BME280;70042;52.494;5.502;2023-08-31T01:41:58;100836.66;;;21.14;64.46
80678;BME280;70042;52.494;5.502;2023-08-31T01:44:27;100831.34;;;21.14;64.47
80678;BME280;70042;52.494;5.502;2023-08-31T01:47:03;100829.59;;;21.13;64.49
80678;BME280;70042;52.494;5.502;2023-08-31T01:49:38;100827.81;;;21.13;64.45
80678;BME280;70042;52.494;5.502;2023-08-31T01:52:04;100831.34;;;21.14;64.42
80678;BME280;70042;52.494;5.502;2023-08-31T01:54:29;100828.69;;;21.14;64.63
80678;BME280;70042;52.494;5.502;2023-08-31T01:56:55;100832.25;;;21.13;64.54
80678;BME280;70042;52.494;5.502;2023-08-31T01:59:20;100829.59;;;21.13;64.48
80678;BME280;70042;52.494;5.502;2023-08-31T02:01:45;100831.34;;;21.14;64.41
80678;BME280;70042;52.494;5.502;2023-08-31T02:04:11;100830.50;;;21.12;64.51
80678;BME280;70042;52.494;5.502;2023-08-31T02:06:37;100827.84;;;21.12;64.43
80678;BME280;70042;52.494;5.502;2023-08-31T02:09:02;100823.41;;;21.12;64.40
80678;BME280;70042;52.494;5.502;2023-08-31T02:11:28;100826.13;;;21.11;64.64
80678;BME280;70042;52.494;5.502;2023-08-31T02:13:53;100833.16;;;21.12;64.60
80678;BME280;70042;52.494;5.502;2023-08-31T02:16:18;100824.41;;;21.10;64.48
80678;BME280;70042;52.494;5.502;2023-08-31T02:18:44;100835.91;;;21.10;64.54
80678;BME280;70042;52.494;5.502;2023-08-31T02:21:09;100832.38;;;21.10;64.37
80678;BME280;70042;52.494;5.502;2023-08-31T02:23:35;100828.84;;;21.09;64.71
80678;BME280;70042;52.494;5.502;2023-08-31T02:26:00;100821.78;;;21.08;64.59
80678;BME280;70042;52.494;5.502;2023-08-31T02:28:26;100820.00;;;21.09;64.53
80678;BME280;70042;52.494;5.502;2023-08-31T02:30:58;100828.88;;;21.08;64.60
80678;BME280;70042;52.494;5.502;2023-08-31T02:33:24;100820.91;;;21.08;64.64
80678;BME280;70042;52.494;5.502;2023-08-31T02:35:50;100819.16;;;21.07;64.65
80678;BME280;70042;52.494;5.502;2023-08-31T02:38:15;100821.81;;;21.07;64.60
80678;BME280;70042;52.494;5.502;2023-08-31T02:40:41;100815.66;;;21.06;64.47
80678;BME280;70042;52.494;5.502;2023-08-31T02:43:07;100819.16;;;21.07;64.44
80678;BME280;70042;52.494;5.502;2023-08-31T02:45:32;100814.78;;;21.06;64.57
80678;BME280;70042;52.494;5.502;2023-08-31T02:47:58;100824.47;;;21.07;64.48
80678;BME280;70042;52.494;5.502;2023-08-31T02:50:23;100827.19;;;21.05;64.50
80678;BME280;70042;52.494;5.502;2023-08-31T02:52:49;100835.22;;;21.04;64.51
80678;BME280;70042;52.494;5.502;2023-08-31T02:55:15;100830.84;;;21.03;64.53
80678;BME280;70042;52.494;5.502;2023-08-31T02:57:40;100831.78;;;21.02;64.54
80678;BME280;70042;52.494;5.502;2023-08-31T03:00:06;100830.03;;;21.01;64.54
80678;BME280;70042;52.494;5.502;2023-08-31T03:02:38;100833.63;;;21.00;64.52
80678;BME280;70042;52.494;5.502;2023-08-31T03:05:04;100828.31;;;21.00;64.47
80678;BME280;70042;52.494;5.502;2023-08-31T03:07:29;100823.84;;;21.00;64.46
80678;BME280;70042;52.494;5.502;2023-08-31T03:09:54;100835.34;;;21.01;64.44
80678;BME280;70042;52.494;5.502;2023-08-31T03:12:20;100827.38;;;21.01;64.34
80678;BME280;70042;52.494;5.502;2023-08-31T03:14:45;100830.03;;;21.01;64.33
80678;BME280;70042;52.494;5.502;2023-08-31T03:17:10;100828.25;;;21.01;64.15
80678;BME280;70042;52.494;5.502;2023-08-31T03:19:36;100824.72;;;21.01;64.20
80678;BME280;70042;52.494;5.502;2023-08-31T03:22:01;100835.34;;;21.01;64.18
80678;BME280;70042;52.494;5.502;2023-08-31T03:24:27;100831.81;;;21.00;64.36
80678;BME280;70042;52.494;5.502;2023-08-31T03:26:52;100842.53;;;20.99;64.18
80678;BME280;70042;52.494;5.502;2023-08-31T03:29:18;100835.47;;;20.98;64.21
80678;BME280;70042;52.494;5.502;2023-08-31T03:31:43;100835.47;;;20.98;64.23
80678;BME280;70042;52.494;5.502;2023-08-31T03:34:08;100839.03;;;20.97;64.35
80678;BME280;70042;52.494;5.502;2023-08-31T03:36:34;100848.81;;;20.96;64.20
80678;BME280;70042;52.494;5.502;2023-08-31T03:38:59;100847.09;;;20.95;64.20
80678;BME280;70042;52.494;5.502;2023-08-31T03:41:25;100842.69;;;20.94;64.36
80678;BME280;70042;52.494;5.502;2023-08-31T03:43:50;100842.75;;;20.93;64.28
80678;BME280;70042;52.494;5.502;2023-08-31T03:46:15;100842.75;;;20.93;64.32
80678;BME280;70042;52.494;5.502;2023-08-31T03:48:41;100846.34;;;20.92;64.23
80678;BME280;70042;52.494;5.502;2023-08-31T03:51:06;100848.03;;;20.93;64.18
80678;BME280;70042;52.494;5.502;2023-08-31T03:53:31;100838.38;;;20.92;64.22
80678;BME280;70042;52.494;5.502;2023-08-31T03:55:57;100831.28;;;20.92;64.24
80678;BME280;70042;52.494;5.502;2023-08-31T03:58:22;100839.25;;;20.92;64.35
80678;BME280;70042;52.494;5.502;2023-08-31T04:00:51;100826.81;;;20.93;64.24
80678;BME280;70042;52.494;5.502;2023-08-31T04:03:17;100845.41;;;20.93;64.22
80678;BME280;70042;52.494;5.502;2023-08-31T04:05:42;100844.47;;;20.94;64.18
80678;BME280;70042;52.494;5.502;2023-08-31T04:08:08;100848.91;;;20.93;64.24
80678;BME280;70042;52.494;5.502;2023-08-31T04:10:33;100849.00;;;20.92;64.35
80678;BME280;70042;52.494;5.502;2023-08-31T04:12:59;100851.66;;;20.92;64.25
80678;BME280;70042;52.494;5.502;2023-08-31T04:15:24;100855.22;;;20.91;64.17
80678;BME280;70042;52.494;5.502;2023-08-31T04:17:50;100849.97;;;20.89;64.27
80678;BME280;70042;52.494;5.502;2023-08-31T04:20:15;100865.06;;;20.89;64.44
80678;BME280;70042;52.494;5.502;2023-08-31T04:22:41;100873.00;;;20.89;64.34
80678;BME280;70042;52.494;5.502;2023-08-31T04:25:06;100867.69;;;20.89;64.28
80678;BME280;70042;52.494;5.502;2023-08-31T04:27:32;100883.63;;;20.89;64.24
80678;BME280;70042;52.494;5.502;2023-08-31T04:30:01;100870.34;;;20.89;64.17
80678;BME280;70042;52.494;5.502;2023-08-31T04:32:27;100866.75;;;20.90;64.35
80678;BME280;70042;52.494;5.502;2023-08-31T04:34:53;100876.53;;;20.89;64.27
80678;BME280;70042;52.494;5.502;2023-08-31T04:37:18;100878.31;;;20.89;64.26
80678;BME280;70042;52.494;5.502;2023-08-31T04:39:44;100878.31;;;20.89;64.16
80678;BME280;70042;52.494;5.502;2023-08-31T04:42:09;100884.50;;;20.89;64.31
80678;BME280;70042;52.494;5.502;2023-08-31T04:44:35;100884.56;;;20.88;64.32
80678;BME280;70042;52.494;5.502;2023-08-31T04:47:00;100886.34;;;20.87;64.27
80678;BME280;70042;52.494;5.502;2023-08-31T04:49:26;100884.63;;;20.86;64.30
80678;BME280;70042;52.494;5.502;2023-08-31T04:51:52;100887.31;;;20.85;64.45
80678;BME280;70042;52.494;5.502;2023-08-31T04:54:17;100895.28;;;20.85;64.20
80678;BME280;70042;52.494;5.502;2023-08-31T04:56:43;100895.28;;;20.85;64.34
80678;BME280;70042;52.494;5.502;2023-08-31T04:59:08;100897.06;;;20.84;64.21
80678;BME280;70042;52.494;5.502;2023-08-31T05:01:34;100890.91;;;20.84;64.44
80678;BME280;70042;52.494;5.502;2023-08-31T05:03:59;100896.22;;;20.84;64.18
80678;BME280;70042;52.494;5.502;2023-08-31T05:06:25;100898.84;;;20.84;64.23
80678;BME280;70042;52.494;5.502;2023-08-31T05:08:51;100902.38;;;20.84;64.40
80678;BME280;70042;52.494;5.502;2023-08-31T05:11:16;100896.22;;;20.84;64.44
80678;BME280;70042;52.494;5.502;2023-08-31T05:13:42;100906.81;;;20.84;64.45
80678;BME280;70042;52.494;5.502;2023-08-31T05:16:08;100907.69;;;20.84;64.37
80678;BME280;70042;52.494;5.502;2023-08-31T05:18:34;100907.69;;;20.84;64.12
80678;BME280;70042;52.494;5.502;2023-08-31T05:20:59;100912.13;;;20.84;64.25
80678;BME280;70042;52.494;5.502;2023-08-31T05:23:25;100909.56;;;20.82;64.36
80678;BME280;70042;52.494;5.502;2023-08-31T05:25:50;100919.31;;;20.82;64.29
80678;BME280;70042;52.494;5.502;2023-08-31T05:28:16;100914.91;;;20.81;64.32
80678;BME280;70042;52.494;5.502;2023-08-31T05:30:49;100918.44;;;20.81;64.24
80678;BME280;70042;52.494;5.502;2023-08-31T05:33:16;100922.88;;;20.81;64.27
80678;BME280;70042;52.494;5.502;2023-08-31T05:35:42;100926.41;;;20.81;64.22
80678;BME280;70042;52.494;5.502;2023-08-31T05:38:07;100928.16;;;20.82;64.21
80678;BME280;70042;52.494;5.502;2023-08-31T05:40:32;100937.91;;;20.82;64.14
80678;BME280;70042;52.494;5.502;2023-08-31T05:42:58;100941.44;;;20.82;64.39
80678;BME280;70042;52.494;5.502;2023-08-31T05:45:23;100935.25;;;20.82;64.17
80678;BME280;70042;52.494;5.502;2023-08-31T05:47:49;100941.44;;;20.82;64.25
80678;BME280;70042;52.494;5.502;2023-08-31T05:50:14;100944.09;;;20.82;64.14
80678;BME280;70042;52.494;5.502;2023-08-31T05:52:39;100940.56;;;20.82;64.29
80678;BME280;70042;52.494;5.502;2023-08-31T05:55:10;100951.19;;;20.82;64.20
80678;BME280;70042;52.494;5.502;2023-08-31T05:57:35;100956.50;;;20.82;64.25
80678;BME280;70042;52.494;5.502;2023-08-31T06:00:03;100964.47;;;20.82;64.23
80678;BME280;70042;52.494;5.502;2023-08-31T06:02:28;100953.84;;;20.82;64.23
80678;BME280;70042;52.494;5.502;2023-08-31T06:04:54;100967.09;;;20.82;64.17
80678;BME280;70042;52.494;5.502;2023-08-31T06:07:19;100961.81;;;20.82;64.11
80678;BME280;70042;52.494;5.502;2023-08-31T06:09:45;100970.56;;;20.84;64.10
80678;BME280;70042;52.494;5.502;2023-08-31T06:12:10;100971.50;;;20.83;64.25
80678;BME280;70042;52.494;5.502;2023-08-31T06:14:35;100984.78;;;20.83;64.13
80678;BME280;70042;52.494;5.502;2023-08-31T06:17:01;100992.69;;;20.84;64.12
80678;BME280;70042;52.494;5.502;2023-08-31T06:19:26;101000.72;;;20.83;64.08
80678;BME280;70042;52.494;5.502;2023-08-31T06:21:52;100987.44;;;20.83;64.21
80678;BME280;70042;52.494;5.502;2023-08-31T06:24:17;100987.47;;;20.81;64.06
80678;BME280;70042;52.494;5.502;2023-08-31T06:26:43;100984.03;;;20.79;64.36
80678;BME280;70042;52.494;5.502;2023-08-31T06:29:08;100986.72;;;20.77;64.13
80678;BME280;70042;52.494;5.502;2023-08-31T06:31:36;100985.84;;;20.77;64.40
80678;BME280;70042;52.494;5.502;2023-08-31T06:34:01;100987.66;;;20.77;64.32
80678;BME280;70042;52.494;5.502;2023-08-31T06:36:27;100989.44;;;20.76;64.19
80678;BME280;70042;52.494;5.502;2023-08-31T06:38:52;100992.00;;;20.79;64.29
80678;BME280;70042;52.494;5.502;2023-08-31T06:41:18;100993.66;;;20.82;64.24
80678;BME280;70042;52.494;5.502;2023-08-31T06:43:43;100995.41;;;20.83;64.28
80678;BME280;70042;52.494;5.502;2023-08-31T06:46:08;100992.69;;;20.84;64.05
80678;BME280;70042;52.494;5.502;2023-08-31T06:48:34;100993.56;;;20.85;64.17
80678;BME280;70042;52.494;5.502;2023-08-31T06:50:59;100998.81;;;20.86;64.09
80678;BME280;70042;52.494;5.502;2023-08-31T06:53:25;101001.47;;;20.86;64.58
80678;BME280;70042;52.494;5.502;2023-08-31T06:55:50;101000.63;;;20.86;64.11
80678;BME280;70042;52.494;5.502;2023-08-31T06:58:15;101005.94;;;20.86;64.33
80678;BME280;70042;52.494;5.502;2023-08-31T07:00:41;101012.16;;;20.85;64.08
80678;BME280;70042;52.494;5.502;2023-08-31T07:03:07;101014.81;;;20.85;64.35
80678;BME280;70042;52.494;5.502;2023-08-31T07:05:41;101017.47;;;20.85;64.40
80678;BME280;70042;52.494;5.502;2023-08-31T07:08:07;101022.78;;;20.85;64.56
80678;BME280;70042;52.494;5.502;2023-08-31T07:10:33;101020.13;;;20.85;64.40
80678;BME280;70042;52.494;5.502;2023-08-31T07:13:02;101021.84;;;20.86;64.19
80678;BME280;70042;52.494;5.502;2023-08-31T07:15:29;101019.19;;;20.86;64.36
80678;BME280;70042;52.494;5.502;2023-08-31T07:17:54;101021.78;;;20.87;64.72
80678;BME280;70042;52.494;5.502;2023-08-31T07:20:19;101027.06;;;20.89;64.74
80678;BME280;70042;52.494;5.502;2023-08-31T07:22:45;101032.38;;;20.89;64.56
80678;BME280;70042;52.494;5.502;2023-08-31T07:25:10;101040.28;;;20.90;64.60
80678;BME280;70042;52.494;5.502;2023-08-31T07:27:37;101031.31;;;20.93;64.60
80678;BME280;70042;52.494;5.502;2023-08-31T07:30:04;101023.34;;;20.93;64.64
80678;BME280;70042;52.494;5.502;2023-08-31T07:32:30;101021.53;;;20.95;65.09
80678;BME280;70042;52.494;5.502;2023-08-31T07:34:56;101024.97;;;20.97;64.70
80678;BME280;70042;52.494;5.502;2023-08-31T07:37:22;101026.72;;;20.98;64.50
80678;BME280;70042;52.494;5.502;2023-08-31T07:39:47;101039.13;;;20.97;64.49
80678;BME280;70042;52.494;5.502;2023-08-31T07:42:12;101045.38;;;20.96;64.55
80678;BME280;70042;52.494;5.502;2023-08-31T07:44:38;101043.66;;;20.95;64.63
80678;BME280;70042;52.494;5.502;2023-08-31T07:47:03;101045.47;;;20.93;64.62
80678;BME280;70042;52.494;5.502;2023-08-31T07:49:29;101046.47;;;20.91;64.58
80678;BME280;70042;52.494;5.502;2023-08-31T07:51:54;101042.06;;;20.90;64.36
80678;BME280;70042;52.494;5.502;2023-08-31T07:54:23;101047.38;;;20.90;64.62
80678;BME280;70042;52.494;5.502;2023-08-31T07:56:48;101046.53;;;20.89;64.64
80678;BME280;70042;52.494;5.502;2023-08-31T07:59:14;101048.25;;;20.90;64.58
80678;BME280;70042;52.494;5.502;2023-08-31T08:01:39;101051.75;;;20.91;64.51
80678;BME280;70042;52.494;5.502;2023-08-31T08:04:06;101052.56;;;20.93;64.58
80678;BME280;70042;52.494;5.502;2023-08-31T08:06:31;101059.59;;;20.95;65.29
80678;BME280;70042;52.494;5.502;2023-08-31T08:08:57;101057.63;;;21.00;64.77
80678;BME280;70042;52.494;5.502;2023-08-31T08:11:23;101057.50;;;21.03;64.97
80678;BME280;70042;52.494;5.502;2023-08-31T08:13:48;101061.84;;;21.06;64.71
80678;BME280;70042;52.494;5.502;2023-08-31T08:16:14;101054.72;;;21.08;64.56
80678;BME280;70042;52.494;5.502;2023-08-31T08:18:39;101057.31;;;21.09;64.71
80678;BME280;70042;52.494;5.502;2023-08-31T08:21:05;101059.97;;;21.09;64.71
80678;BME280;70042;52.494;5.502;2023-08-31T08:23:30;101060.81;;;21.11;64.39
80678;BME280;70042;52.494;5.502;2023-08-31T08:25:56;101068.72;;;21.13;64.99
80678;BME280;70042;52.494;5.502;2023-08-31T08:28:24;101066.84;;;21.15;64.70
80678;BME280;70042;52.494;5.502;2023-08-31T08:30:50;101071.25;;;21.16;65.06
80678;BME280;70042;52.494;5.502;2023-08-31T08:33:16;101065.91;;;21.17;64.77
80678;BME280;70042;52.494;5.502;2023-08-31T08:35:41;101065.84;;;21.19;64.81
80678;BME280;70042;52.494;5.502;2023-08-31T08:38:07;101067.50;;;21.21;64.39
80678;BME280;70042;52.494;5.502;2023-08-31T08:40:33;101069.22;;;21.24;64.70
80678;BME280;70042;52.494;5.502;2023-08-31T08:43:00;101067.34;;;21.26;65.97
80678;BME280;70042;52.494;5.502;2023-08-31T08:45:30;101070.78;;;21.30;66.09
80678;BME280;70042;52.494;5.502;2023-08-31T08:48:03;101072.44;;;21.32;65.95
80678;BME280;70042;52.494;5.502;2023-08-31T08:50:31;101082.09;;;21.35;65.64
80678;BME280;70042;52.494;5.502;2023-08-31T08:53:00;101074.00;;;21.38;65.62
80678;BME280;70042;52.494;5.502;2023-08-31T08:55:27;101082.75;;;21.41;65.25
80678;BME280;70042;52.494;5.502;2023-08-31T08:57:52;101090.59;;;21.44;64.82
80678;BME280;70042;52.494;5.502;2023-08-31T09:00:18;101090.50;;;21.47;65.05
80678;BME280;70042;52.494;5.502;2023-08-31T09:02:43;101102.88;;;21.48;64.70
80678;BME280;70042;52.494;5.502;2023-08-31T09:05:11;101099.28;;;21.49;64.54
80678;BME280;70042;52.494;5.502;2023-08-31T09:07:38;101098.47;;;21.47;64.58
80678;BME280;70042;52.494;5.502;2023-08-31T09:10:05;101101.13;;;21.47;64.36
80678;BME280;70042;52.494;5.502;2023-08-31T09:12:30;101098.47;;;21.47;64.44
80678;BME280;70042;52.494;5.502;2023-08-31T09:15:01;101095.69;;;21.50;64.32
80678;BME280;70042;52.494;5.502;2023-08-31T09:17:41;101098.19;;;21.55;64.44
80678;BME280;70042;52.494;5.502;2023-08-31T09:20:09;101104.38;;;21.55;64.26
80678;BME280;70042;52.494;5.502;2023-08-31T09:22:35;101106.22;;;21.53;64.52
80678;BME280;70042;52.494;5.502;2023-08-31T09:25:02;101118.63;;;21.53;64.17
80678;BME280;70042;52.494;5.502;2023-08-31T09:27:31;101109.81;;;21.52;64.18
80678;BME280;70042;52.494;5.502;2023-08-31T09:30:04;101107.19;;;21.51;64.38
80678;BME280;70042;52.494;5.502;2023-08-31T09:32:30;101112.59;;;21.49;64.45
80678;BME280;70042;52.494;5.502;2023-08-31T09:34:56;101108.19;;;21.48;64.19
80678;BME280;70042;52.494;5.502;2023-08-31T09:37:21;101102.91;;;21.47;64.37
80678;BME280;70042;52.494;5.502;2023-08-31T09:39:47;101108.19;;;21.48;64.18
80678;BME280;70042;52.494;5.502;2023-08-31T09:42:12;101109.09;;;21.47;64.33
80678;BME280;70042;52.494;5.502;2023-08-31T09:44:42;101102.88;;;21.48;64.26
80678;BME280;70042;52.494;5.502;2023-08-31T09:47:08;101096.75;;;21.46;64.21
80678;BME280;70042;52.494;5.502;2023-08-31T09:49:35;101102.00;;;21.48;64.32
80678;BME280;70042;52.494;5.502;2023-08-31T09:52:03;101098.41;;;21.49;64.13
80678;BME280;70042;52.494;5.502;2023-08-31T09:54:30;101104.63;;;21.49;64.17
80678;BME280;70042;52.494;5.502;2023-08-31T09:56:59;101105.28;;;21.54;64.22
80678;BME280;70042;52.494;5.502;2023-08-31T09:59:27;101102.53;;;21.57;64.27
80678;BME280;70042;52.494;5.502;2023-08-31T10:01:52;101104.19;;;21.60;64.34
80678;BME280;70042;52.494;5.502;2023-08-31T10:04:21;101104.94;;;21.63;64.16
80678;BME280;70042;52.494;5.502;2023-08-31T10:06:48;101108.38;;;21.67;63.83
80678;BME280;70042;52.494;5.502;2023-08-31T10:09:14;101109.13;;;21.70;63.79
80678;BME280;70042;52.494;5.502;2023-08-31T10:11:41;101114.44;;;21.70;63.87
80678;BME280;70042;52.494;5.502;2023-08-31T10:14:11;101113.53;;;21.71;63.52
80678;BME280;70042;52.494;5.502;2023-08-31T10:16:39;101119.66;;;21.73;63.51
80678;BME280;70042;52.494;5.502;2023-08-31T10:19:05;101111.47;;;21.78;63.53
80678;BME280;70042;52.494;5.502;2023-08-31T10:21:31;101111.44;;;21.79;63.47
80678;BME280;70042;52.494;5.502;2023-08-31T10:23:57;101114.22;;;21.76;63.56
80678;BME280;70042;52.494;5.502;2023-08-31T10:26:24;101124.84;;;21.76;63.55
80678;BME280;70042;52.494;5.502;2023-08-31T10:28:51;101122.22;;;21.75;63.51
80678;BME280;70042;52.494;5.502;2023-08-31T10:31:17;101121.41;;;21.74;63.51
80678;BME280;70042;52.494;5.502;2023-08-31T10:33:44;101119.66;;;21.73;63.58
80678;BME280;70042;52.494;5.502;2023-08-31T10:36:18;101122.22;;;21.75;63.48
80678;BME280;70042;52.494;5.502;2023-08-31T10:39:00;101124.72;;;21.79;63.50
80678;BME280;70042;52.494;5.502;2023-08-31T10:41:35;101126.47;;;21.80;63.61
80678;BME280;70042;52.494;5.502;2023-08-31T10:44:01;101129.94;;;21.83;63.34
80678;BME280;70042;52.494;5.502;2023-08-31T10:48:54;101140.69;;;21.79;63.33
80678;BME280;70042;52.494;5.502;2023-08-31T10:51:32;101121.28;;;21.77;63.34
80678;BME280;70042;52.494;5.502;2023-08-31T10:54:09;101119.53;;;21.76;63.36
80678;BME280;70042;52.494;5.502;2023-08-31T10:57:01;101124.78;;;21.78;63.70
80678;BME280;70042;52.494;5.502;2023-08-31T11:02:11;101119.41;;;21.79;63.79
80678;BME280;70042;52.494;5.502;2023-08-31T11:04:54;101117.56;;;21.81;63.68
80678;BME280;70042;52.494;5.502;2023-08-31T11:07:24;101122.75;;;21.85;63.42
80678;BME280;70042;52.494;5.502;2023-08-31T11:09:50;101119.97;;;21.88;64.01
80678;BME280;70042;52.494;5.502;2023-08-31T11:12:15;101122.56;;;21.91;63.76
80678;BME280;70042;52.494;5.502;2023-08-31T11:14:41;101129.56;;;21.93;63.71
80678;BME280;70042;52.494;5.502;2023-08-31T11:17:07;101126.72;;;21.98;63.47
80678;BME280;70042;52.494;5.502;2023-08-31T11:19:34;101133.78;;;21.99;63.66
80678;BME280;70042;52.494;5.502;2023-08-31T11:22:01;101137.19;;;22.02;63.34
80678;BME280;70042;52.494;5.502;2023-08-31T11:24:33;101123.94;;;22.01;63.78
80678;BME280;70042;52.494;5.502;2023-08-31T11:26:59;101131.13;;;21.99;63.56
80678;BME280;70042;52.494;5.502;2023-08-31T11:29:28;101133.72;;;22.00;63.37
80678;BME280;70042;52.494;5.502;2023-08-31T11:31:56;101145.34;;;21.98;63.36
80678;BME280;70042;52.494;5.502;2023-08-31T11:34:21;101140.97;;;21.97;63.29
80678;BME280;70042;52.494;5.502;2023-08-31T11:36:47;101135.75;;;21.94;63.16
80678;BME280;70042;52.494;5.502;2023-08-31T11:39:13;101137.69;;;21.90;63.32
80678;BME280;70042;52.494;5.502;2023-08-31T11:41:40;101139.34;;;21.93;63.19
80678;BME280;70042;52.494;5.502;2023-08-31T11:44:13;101143.72;;;21.94;63.44
80678;BME280;70042;52.494;5.502;2023-08-31T11:46:39;101134.81;;;21.95;63.49
80678;BME280;70042;52.494;5.502;2023-08-31T11:49:07;101143.72;;;21.94;63.26
80678;BME280;70042;52.494;5.502;2023-08-31T11:51:33;101136.56;;;21.96;63.14
80678;BME280;70042;52.494;5.502;2023-08-31T11:54:01;101148.94;;;21.97;62.92
80678;BME280;70042;52.494;5.502;2023-08-31T11:56:38;101148.19;;;21.93;63.19
80678;BME280;70042;52.494;5.502;2023-08-31T11:59:08;101149.16;;;21.91;62.95
80678;BME280;70042;52.494;5.502;2023-08-31T12:01:38;101147.44;;;21.90;63.20
80678;BME280;70042;52.494;5.502;2023-08-31T12:04:10;101159.88;;;21.88;63.15
80678;BME280;70042;52.494;5.502;2023-08-31T12:06:35;101163.50;;;21.87;63.39
80678;BME280;70042;52.494;5.502;2023-08-31T12:09:01;101164.41;;;21.86;63.12
80678;BME280;70042;52.494;5.502;2023-08-31T12:11:29;101166.25;;;21.84;63.26
80678;BME280;70042;52.494;5.502;2023-08-31T12:13:59;101161.84;;;21.83;63.35
80678;BME280;70042;52.494;5.502;2023-08-31T12:16:32;101167.22;;;21.81;63.21
80678;BME280;70042;52.494;5.502;2023-08-31T12:18:59;101163.72;;;21.80;63.27
80678;BME280;70042;52.494;5.502;2023-08-31T12:21:24;101166.38;;;21.80;63.26
80678;BME280;70042;52.494;5.502;2023-08-31T12:23:50;101169.84;;;21.83;63.08
80678;BME280;70042;52.494;5.502;2023-08-31T12:26:15;101170.75;;;21.81;63.37
80678;BME280;70042;52.494;5.502;2023-08-31T12:28:40;101167.13;;;21.84;63.24
80678;BME280;70042;52.494;5.502;2023-08-31T12:31:06;101167.13;;;21.84;63.45
80678;BME280;70042;52.494;5.502;2023-08-31T12:33:31;101172.38;;;21.86;63.29
80678;BME280;70042;52.494;5.502;2023-08-31T12:35:57;101168.72;;;21.90;63.31
80678;BME280;70042;52.494;5.502;2023-08-31T12:38:22;101169.53;;;21.92;63.24
80678;BME280;70042;52.494;5.502;2023-08-31T12:40:47;101173.00;;;21.94;63.33
80678;BME280;70042;52.494;5.502;2023-08-31T12:43:13;101171.94;;;21.98;63.06
80678;BME280;70042;52.494;5.502;2023-08-31T12:45:39;101162.97;;;22.00;62.73
80678;BME280;70042;52.494;5.502;2023-08-31T12:48:05;101169.06;;;22.04;63.09
80678;BME280;70042;52.494;5.502;2023-08-31T12:50:30;101174.34;;;22.05;62.63
80678;BME280;70042;52.494;5.502;2023-08-31T12:52:57;101173.34;;;22.08;62.90
80678;BME280;70042;52.494;5.502;2023-08-31T12:55:23;101168.78;;;22.11;62.65
80678;BME280;70042;52.494;5.502;2023-08-31T12:57:49;101176.66;;;22.14;62.62
80678;BME280;70042;52.494;5.502;2023-08-31T13:00:15;101176.56;;;22.16;62.20
80678;BME280;70042;52.494;5.502;2023-08-31T13:02:41;101185.31;;;22.19;62.38
80678;BME280;70042;52.494;5.502;2023-08-31T13:05:08;101173.75;;;22.20;62.33